sensor_id;sensor_type;location;lat;lon;timestamp;P1;durP1;ratioP1;P2;durP2;ratioP2
61483;SDS011;47349;55.640;37.692;2022-08-19T00:00:54;10.10;;;5.78;;
61483;SDS011;47349;55.640;37.692;2022-08-19T00:03:38;7.57;;;5.00;;
61483;SDS011;47349;55.640;37.692;2022-08-19T00:06:36;8.63;;;5.80;;
61483;SDS011;47349;55.640;37.692;2022-08-19T00:09:19;12.18;;;5.20;;
61483;SDS011;47349;55.640;37.692;2022-08-19T00:11:49;9.98;;;5.78;;
61483;SDS011;47349;55.640;37.692;2022-08-19T00:14:30;10.85;;;5.65;;
61483;SDS011;47349;55.640;37.692;2022-08-19T00:16:58;8.40;;;5.32;;
61483;SDS011;47349;55.640;37.692;2022-08-19T00:19:40;16.65;;;5.85;;
61483;SDS011;47349;55.640;37.692;2022-08-19T00:22:12;9.05;;;5.40;;
61483;SDS011;47349;55.640;37.692;2022-08-19T00:24:54;12.98;;;5.05;;
61483;SDS011;47349;55.640;37.692;2022-08-19T00:27:36;9.15;;;5.63;;
61483;SDS011;47349;55.640;37.692;2022-08-19T00:30:57;11.25;;;5.40;;
61483;SDS011;47349;55.640;37.692;2022-08-19T00:33:38;10.85;;;5.47;;
61483;SDS011;47349;55.640;37.692;2022-08-19T00:36:22;9.88;;;5.45;;
61483;SDS011;47349;55.640;37.692;2022-08-19T00:39:05;12.15;;;5.95;;
61483;SDS011;47349;55.640;37.692;2022-08-19T00:41:47;8.43;;;5.20;;
61483;SDS011;47349;55.640;37.692;2022-08-19T00:44:31;8.25;;;4.88;;
61483;SDS011;47349;55.640;37.692;2022-08-19T00:47:01;8.60;;;4.60;;
61483;SDS011;47349;55.640;37.692;2022-08-19T00:49:53;9.48;;;5.35;;
61483;SDS011;47349;55.640;37.692;2022-08-19T00:52:40;10.65;;;5.07;;
61483;SDS011;47349;55.640;37.692;2022-08-19T00:55:30;13.05;;;4.53;;
61483;SDS011;47349;55.640;37.692;2022-08-19T00:58:00;12.02;;;5.85;;
61483;SDS011;47349;55.640;37.692;2022-08-19T01:00:46;13.10;;;5.03;;
61483;SDS011;47349;55.640;37.692;2022-08-19T01:03:25;11.10;;;5.22;;
61483;SDS011;47349;55.640;37.692;2022-08-19T01:06:05;12.40;;;5.22;;
61483;SDS011;47349;55.640;37.692;2022-08-19T01:09:03;10.98;;;5.40;;
61483;SDS011;47349;55.640;37.692;2022-08-19T01:11:45;11.27;;;6.07;;
61483;SDS011;47349;55.640;37.692;2022-08-19T01:14:33;13.70;;;5.18;;
61483;SDS011;47349;55.640;37.692;2022-08-19T01:17:19;7.72;;;4.47;;
61483;SDS011;47349;55.640;37.692;2022-08-19T01:20:03;10.80;;;5.15;;
61483;SDS011;47349;55.640;37.692;2022-08-19T01:22:56;10.90;;;4.72;;
61483;SDS011;47349;55.640;37.692;2022-08-19T01:25:44;10.50;;;4.63;;
61483;SDS011;47349;55.640;37.692;2022-08-19T01:28:33;9.43;;;4.75;;
61483;SDS011;47349;55.640;37.692;2022-08-19T01:31:16;8.30;;;4.25;;
61483;SDS011;47349;55.640;37.692;2022-08-19T01:33:55;12.52;;;4.72;;
61483;SDS011;47349;55.640;37.692;2022-08-19T01:36:33;10.13;;;4.70;;
61483;SDS011;47349;55.640;37.692;2022-08-19T01:39:20;10.20;;;4.43;;
61483;SDS011;47349;55.640;37.692;2022-08-19T01:42:04;6.45;;;4.13;;
61483;SDS011;47349;55.640;37.692;2022-08-19T01:44:48;10.60;;;4.60;;
61483;SDS011;47349;55.640;37.692;2022-08-19T01:47:29;9.73;;;4.30;;
61483;SDS011;47349;55.640;37.692;2022-08-19T01:50:12;10.10;;;4.30;;
61483;SDS011;47349;55.640;37.692;2022-08-19T01:52:42;11.00;;;4.15;;
61483;SDS011;47349;55.640;37.692;2022-08-19T01:55:24;5.85;;;3.85;;
61483;SDS011;47349;55.640;37.692;2022-08-19T01:57:54;6.80;;;4.20;;
61483;SDS011;47349;55.640;37.692;2022-08-19T02:00:29;6.80;;;4.25;;
61483;SDS011;47349;55.640;37.692;2022-08-19T02:03:12;12.10;;;4.88;;
61483;SDS011;47349;55.640;37.692;2022-08-19T02:05:58;10.15;;;5.05;;
61483;SDS011;47349;55.640;37.692;2022-08-19T02:08:46;9.45;;;4.40;;
61483;SDS011;47349;55.640;37.692;2022-08-19T02:11:49;7.97;;;3.90;;
61483;SDS011;47349;55.640;37.692;2022-08-19T02:14:53;11.00;;;5.10;;
61483;SDS011;47349;55.640;37.692;2022-08-19T02:18:27;7.07;;;4.35;;
61483;SDS011;47349;55.640;37.692;2022-08-19T02:21:08;12.13;;;4.80;;
61483;SDS011;47349;55.640;37.692;2022-08-19T02:23:54;9.15;;;4.70;;
61483;SDS011;47349;55.640;37.692;2022-08-19T02:26:55;10.05;;;4.35;;
61483;SDS011;47349;55.640;37.692;2022-08-19T02:29:29;10.38;;;5.15;;
61483;SDS011;47349;55.640;37.692;2022-08-19T02:32:02;12.43;;;5.00;;
61483;SDS011;47349;55.640;37.692;2022-08-19T02:34:40;10.95;;;4.78;;
61483;SDS011;47349;55.640;37.692;2022-08-19T02:38:04;11.45;;;5.43;;
61483;SDS011;47349;55.640;37.692;2022-08-19T02:40:52;7.97;;;4.40;;
61483;SDS011;47349;55.640;37.692;2022-08-19T02:43:45;14.35;;;5.13;;
61483;SDS011;47349;55.640;37.692;2022-08-19T02:46:37;12.30;;;5.63;;
61483;SDS011;47349;55.640;37.692;2022-08-19T02:49:19;14.20;;;5.40;;
61483;SDS011;47349;55.640;37.692;2022-08-19T02:52:00;13.77;;;5.43;;
61483;SDS011;47349;55.640;37.692;2022-08-19T02:54:38;15.43;;;5.65;;
61483;SDS011;47349;55.640;37.692;2022-08-19T02:57:10;16.63;;;5.82;;
61483;SDS011;47349;55.640;37.692;2022-08-19T02:59:55;12.48;;;5.93;;
61483;SDS011;47349;55.640;37.692;2022-08-19T03:02:36;9.88;;;5.07;;
61483;SDS011;47349;55.640;37.692;2022-08-19T03:05:17;14.10;;;5.40;;
61483;SDS011;47349;55.640;37.692;2022-08-19T03:08:07;12.85;;;5.22;;
61483;SDS011;47349;55.640;37.692;2022-08-19T03:10:44;12.73;;;5.30;;
61483;SDS011;47349;55.640;37.692;2022-08-19T03:13:26;11.77;;;5.93;;
61483;SDS011;47349;55.640;37.692;2022-08-19T03:16:11;11.57;;;5.82;;
61483;SDS011;47349;55.640;37.692;2022-08-19T03:19:24;12.48;;;5.07;;
61483;SDS011;47349;55.640;37.692;2022-08-19T03:22:05;9.73;;;5.07;;
61483;SDS011;47349;55.640;37.692;2022-08-19T03:24:52;11.18;;;5.57;;
61483;SDS011;47349;55.640;37.692;2022-08-19T03:28:53;16.77;;;5.78;;
61483;SDS011;47349;55.640;37.692;2022-08-19T03:31:26;9.63;;;5.53;;
61483;SDS011;47349;55.640;37.692;2022-08-19T03:34:48;15.10;;;6.18;;
61483;SDS011;47349;55.640;37.692;2022-08-19T03:39:40;10.90;;;6.13;;
61483;SDS011;47349;55.640;37.692;2022-08-19T03:46:08;11.63;;;5.60;;
61483;SDS011;47349;55.640;37.692;2022-08-19T03:48:52;12.38;;;5.20;;
61483;SDS011;47349;55.640;37.692;2022-08-19T03:51:38;10.27;;;5.60;;
61483;SDS011;47349;55.640;37.692;2022-08-19T03:54:23;9.98;;;6.03;;
61483;SDS011;47349;55.640;37.692;2022-08-19T03:57:06;12.68;;;5.85;;
61483;SDS011;47349;55.640;37.692;2022-08-19T03:59:51;12.45;;;6.07;;
61483;SDS011;47349;55.640;37.692;2022-08-19T04:06:26;9.52;;;6.13;;
61483;SDS011;47349;55.640;37.692;2022-08-19T04:09:15;11.65;;;5.80;;
61483;SDS011;47349;55.640;37.692;2022-08-19T04:11:56;15.02;;;6.60;;
61483;SDS011;47349;55.640;37.692;2022-08-19T04:14:38;10.95;;;6.97;;
61483;SDS011;47349;55.640;37.692;2022-08-19T04:17:26;14.68;;;6.10;;
61483;SDS011;47349;55.640;37.692;2022-08-19T04:19:58;11.27;;;6.32;;
61483;SDS011;47349;55.640;37.692;2022-08-19T04:22:41;16.40;;;7.03;;
61483;SDS011;47349;55.640;37.692;2022-08-19T04:25:25;11.45;;;5.82;;
61483;SDS011;47349;55.640;37.692;2022-08-19T04:28:10;17.20;;;6.80;;
61483;SDS011;47349;55.640;37.692;2022-08-19T04:34:53;14.75;;;6.40;;
61483;SDS011;47349;55.640;37.692;2022-08-19T04:37:58;14.38;;;6.88;;
61483;SDS011;47349;55.640;37.692;2022-08-19T05:02:32;19.38;;;7.75;;
61483;SDS011;47349;55.640;37.692;2022-08-19T05:05:16;12.75;;;6.55;;
61483;SDS011;47349;55.640;37.692;2022-08-19T05:09:21;14.45;;;6.85;;
61483;SDS011;47349;55.640;37.692;2022-08-19T05:24:51;12.95;;;6.68;;
61483;SDS011;47349;55.640;37.692;2022-08-19T05:38:30;11.10;;;6.07;;
61483;SDS011;47349;55.640;37.692;2022-08-19T05:41:42;14.73;;;6.78;;
61483;SDS011;47349;55.640;37.692;2022-08-19T05:50:05;14.18;;;6.40;;
61483;SDS011;47349;55.640;37.692;2022-08-19T05:55:13;9.65;;;5.50;;
61483;SDS011;47349;55.640;37.692;2022-08-19T05:59:47;11.82;;;6.63;;
61483;SDS011;47349;55.640;37.692;2022-08-19T06:02:40;12.52;;;5.68;;
61483;SDS011;47349;55.640;37.692;2022-08-19T06:05:23;12.45;;;5.75;;
61483;SDS011;47349;55.640;37.692;2022-08-19T06:23:23;10.38;;;5.13;;
61483;SDS011;47349;55.640;37.692;2022-08-19T06:28:18;10.43;;;5.70;;
61483;SDS011;47349;55.640;37.692;2022-08-19T06:33:11;10.98;;;5.18;;
61483;SDS011;47349;55.640;37.692;2022-08-19T06:37:57;9.35;;;5.22;;
61483;SDS011;47349;55.640;37.692;2022-08-19T06:42:29;7.70;;;4.75;;
61483;SDS011;47349;55.640;37.692;2022-08-19T06:47:28;8.60;;;5.43;;
61483;SDS011;47349;55.640;37.692;2022-08-19T06:52:46;13.15;;;5.72;;
61483;SDS011;47349;55.640;37.692;2022-08-19T06:57:14;10.80;;;5.50;;
61483;SDS011;47349;55.640;37.692;2022-08-19T07:01:54;9.88;;;5.65;;
61483;SDS011;47349;55.640;37.692;2022-08-19T07:06:23;8.35;;;5.68;;
61483;SDS011;47349;55.640;37.692;2022-08-19T07:11:07;10.77;;;5.80;;
61483;SDS011;47349;55.640;37.692;2022-08-19T07:15:46;15.98;;;6.05;;
61483;SDS011;47349;55.640;37.692;2022-08-19T07:20:16;10.57;;;5.88;;
61483;SDS011;47349;55.640;37.692;2022-08-19T07:24:55;12.57;;;5.57;;
61483;SDS011;47349;55.640;37.692;2022-08-19T07:29:39;6.43;;;4.35;;
61483;SDS011;47349;55.640;37.692;2022-08-19T07:34:16;13.70;;;5.03;;
61483;SDS011;47349;55.640;37.692;2022-08-19T07:37:29;7.50;;;4.93;;
61483;SDS011;47349;55.640;37.692;2022-08-19T07:40:57;10.30;;;4.67;;
61483;SDS011;47349;55.640;37.692;2022-08-19T07:43:48;12.05;;;4.70;;
61483;SDS011;47349;55.640;37.692;2022-08-19T07:46:39;12.13;;;4.10;;
61483;SDS011;47349;55.640;37.692;2022-08-19T07:53:28;9.98;;;4.13;;
61483;SDS011;47349;55.640;37.692;2022-08-19T07:58:24;12.27;;;4.70;;
61483;SDS011;47349;55.640;37.692;2022-08-19T08:03:02;11.45;;;4.68;;
61483;SDS011;47349;55.640;37.692;2022-08-19T08:17:05;7.57;;;4.25;;
61483;SDS011;47349;55.640;37.692;2022-08-19T08:19:52;8.20;;;4.53;;
61483;SDS011;47349;55.640;37.692;2022-08-19T08:28:22;7.60;;;5.05;;
61483;SDS011;47349;55.640;37.692;2022-08-19T08:33:28;5.60;;;3.50;;
61483;SDS011;47349;55.640;37.692;2022-08-19T08:38:30;5.43;;;3.90;;
61483;SDS011;47349;55.640;37.692;2022-08-19T08:43:55;5.10;;;3.00;;
61483;SDS011;47349;55.640;37.692;2022-08-19T09:03:56;8.35;;;3.35;;
61483;SDS011;47349;55.640;37.692;2022-08-19T09:18:08;5.70;;;4.00;;
61483;SDS011;47349;55.640;37.692;2022-08-19T12:13:05;8.27;;;3.40;;
61483;SDS011;47349;55.640;37.692;2022-08-19T12:16:42;7.68;;;3.35;;
61483;SDS011;47349;55.640;37.692;2022-08-19T12:19:31;6.97;;;3.10;;
61483;SDS011;47349;55.640;37.692;2022-08-19T12:22:18;5.25;;;2.80;;
61483;SDS011;47349;55.640;37.692;2022-08-19T12:37:03;4.60;;;3.03;;
61483;SDS011;47349;55.640;37.692;2022-08-19T12:45:54;6.05;;;3.53;;
61483;SDS011;47349;55.640;37.692;2022-08-19T12:48:35;7.82;;;3.08;;
61483;SDS011;47349;55.640;37.692;2022-08-19T12:51:09;12.85;;;3.97;;
61483;SDS011;47349;55.640;37.692;2022-08-19T12:53:58;8.65;;;3.17;;
61483;SDS011;47349;55.640;37.692;2022-08-19T12:56:39;8.50;;;3.33;;
61483;SDS011;47349;55.640;37.692;2022-08-19T12:59:24;8.63;;;3.50;;
61483;SDS011;47349;55.640;37.692;2022-08-19T13:02:12;7.43;;;3.50;;
61483;SDS011;47349;55.640;37.692;2022-08-19T13:05:45;9.93;;;3.10;;
61483;SDS011;47349;55.640;37.692;2022-08-19T13:08:27;7.05;;;3.38;;
61483;SDS011;47349;55.640;37.692;2022-08-19T13:11:10;6.57;;;3.60;;
61483;SDS011;47349;55.640;37.692;2022-08-19T13:13:54;8.60;;;3.58;;
61483;SDS011;47349;55.640;37.692;2022-08-19T13:16:37;4.68;;;3.25;;
61483;SDS011;47349;55.640;37.692;2022-08-19T13:19:10;5.50;;;3.80;;
61483;SDS011;47349;55.640;37.692;2022-08-19T13:21:53;7.20;;;4.05;;
61483;SDS011;47349;55.640;37.692;2022-08-19T13:24:37;8.43;;;3.75;;
61483;SDS011;47349;55.640;37.692;2022-08-19T13:27:19;8.60;;;4.45;;
61483;SDS011;47349;55.640;37.692;2022-08-19T13:30:07;12.40;;;4.68;;
61483;SDS011;47349;55.640;37.692;2022-08-19T13:33:31;12.00;;;4.80;;
61483;SDS011;47349;55.640;37.692;2022-08-19T13:37:05;9.50;;;5.05;;
61483;SDS011;47349;55.640;37.692;2022-08-19T13:39:50;15.38;;;7.75;;
61483;SDS011;47349;55.640;37.692;2022-08-19T13:42:36;12.38;;;7.60;;
61483;SDS011;47349;55.640;37.692;2022-08-19T13:45:50;10.87;;;8.10;;
61483;SDS011;47349;55.640;37.692;2022-08-19T13:55:05;13.23;;;7.70;;
61483;SDS011;47349;55.640;37.692;2022-08-19T13:57:52;18.60;;;12.45;;
61483;SDS011;47349;55.640;37.692;2022-08-19T14:00:44;23.13;;;14.15;;
61483;SDS011;47349;55.640;37.692;2022-08-19T14:03:28;18.95;;;13.73;;
61483;SDS011;47349;55.640;37.692;2022-08-19T14:06:10;18.88;;;11.90;;
61483;SDS011;47349;55.640;37.692;2022-08-19T14:08:54;17.58;;;11.90;;
61483;SDS011;47349;55.640;37.692;2022-08-19T14:12:42;18.83;;;11.90;;
61483;SDS011;47349;55.640;37.692;2022-08-19T14:15:26;18.38;;;12.77;;
61483;SDS011;47349;55.640;37.692;2022-08-19T14:18:26;13.93;;;10.05;;
61483;SDS011;47349;55.640;37.692;2022-08-19T14:21:28;18.17;;;9.32;;
61483;SDS011;47349;55.640;37.692;2022-08-19T14:24:14;17.75;;;11.00;;
61483;SDS011;47349;55.640;37.692;2022-08-19T14:26:59;26.88;;;17.88;;
61483;SDS011;47349;55.640;37.692;2022-08-19T14:30:41;35.28;;;25.38;;
61483;SDS011;47349;55.640;37.692;2022-08-19T14:34:55;43.13;;;28.00;;
61483;SDS011;47349;55.640;37.692;2022-08-19T14:37:54;41.63;;;29.20;;
61483;SDS011;47349;55.640;37.692;2022-08-19T14:40:37;47.05;;;28.83;;
61483;SDS011;47349;55.640;37.692;2022-08-19T14:43:27;36.63;;;25.10;;
61483;SDS011;47349;55.640;37.692;2022-08-19T14:46:15;35.95;;;23.40;;
61483;SDS011;47349;55.640;37.692;2022-08-19T14:53:11;30.15;;;21.88;;
61483;SDS011;47349;55.640;37.692;2022-08-19T14:57:28;26.27;;;21.83;;
61483;SDS011;47349;55.640;37.692;2022-08-19T15:00:19;29.65;;;16.42;;
61483;SDS011;47349;55.640;37.692;2022-08-19T15:02:58;20.73;;;17.23;;
61483;SDS011;47349;55.640;37.692;2022-08-19T15:05:41;21.60;;;14.35;;
61483;SDS011;47349;55.640;37.692;2022-08-19T15:08:29;17.63;;;13.07;;
61483;SDS011;47349;55.640;37.692;2022-08-19T15:11:21;18.75;;;11.60;;
61483;SDS011;47349;55.640;37.692;2022-08-19T15:14:04;14.38;;;10.27;;
61483;SDS011;47349;55.640;37.692;2022-08-19T15:16:46;12.20;;;9.48;;
61483;SDS011;47349;55.640;37.692;2022-08-19T15:19:33;13.75;;;9.27;;
61483;SDS011;47349;55.640;37.692;2022-08-19T15:22:20;11.57;;;7.47;;
61483;SDS011;47349;55.640;37.692;2022-08-19T15:25:03;15.30;;;8.50;;
61483;SDS011;47349;55.640;37.692;2022-08-19T15:27:55;13.85;;;7.72;;
61483;SDS011;47349;55.640;37.692;2022-08-19T15:31:49;10.95;;;6.75;;
61483;SDS011;47349;55.640;37.692;2022-08-19T15:34:46;10.10;;;6.50;;
61483;SDS011;47349;55.640;37.692;2022-08-19T15:37:31;13.25;;;6.68;;
61483;SDS011;47349;55.640;37.692;2022-08-19T15:41:01;9.88;;;6.32;;
61483;SDS011;47349;55.640;37.692;2022-08-19T15:43:55;11.02;;;5.43;;
61483;SDS011;47349;55.640;37.692;2022-08-19T15:46:50;13.82;;;6.38;;
61483;SDS011;47349;55.640;37.692;2022-08-19T15:49:35;11.98;;;5.97;;
61483;SDS011;47349;55.640;37.692;2022-08-19T15:52:19;13.40;;;5.70;;
61483;SDS011;47349;55.640;37.692;2022-08-19T15:55:51;10.95;;;4.93;;
61483;SDS011;47349;55.640;37.692;2022-08-19T15:58:41;8.90;;;4.82;;
61483;SDS011;47349;55.640;37.692;2022-08-19T16:01:43;11.13;;;4.82;;
61483;SDS011;47349;55.640;37.692;2022-08-19T16:05:57;11.20;;;5.20;;
61483;SDS011;47349;55.640;37.692;2022-08-19T16:09:28;10.25;;;4.30;;
61483;SDS011;47349;55.640;37.692;2022-08-19T16:12:15;13.52;;;5.72;;
61483;SDS011;47349;55.640;37.692;2022-08-19T16:15:00;9.45;;;4.13;;
61483;SDS011;47349;55.640;37.692;2022-08-19T16:17:49;11.30;;;4.72;;
61483;SDS011;47349;55.640;37.692;2022-08-19T16:20:32;13.52;;;4.22;;
61483;SDS011;47349;55.640;37.692;2022-08-19T16:24:03;7.90;;;4.18;;
61483;SDS011;47349;55.640;37.692;2022-08-19T16:26:48;8.57;;;4.20;;
61483;SDS011;47349;55.640;37.692;2022-08-19T16:29:33;11.07;;;4.07;;
61483;SDS011;47349;55.640;37.692;2022-08-19T16:32:22;6.53;;;3.70;;
61483;SDS011;47349;55.640;37.692;2022-08-19T16:35:30;14.65;;;5.18;;
61483;SDS011;47349;55.640;37.692;2022-08-19T16:38:28;9.07;;;4.53;;
61483;SDS011;47349;55.640;37.692;2022-08-19T16:41:58;13.43;;;4.45;;
61483;SDS011;47349;55.640;37.692;2022-08-19T16:45:34;11.73;;;4.10;;
61483;SDS011;47349;55.640;37.692;2022-08-19T16:48:33;8.60;;;4.65;;
61483;SDS011;47349;55.640;37.692;2022-08-19T16:51:41;7.13;;;4.18;;
61483;SDS011;47349;55.640;37.692;2022-08-19T16:54:25;9.40;;;4.28;;
61483;SDS011;47349;55.640;37.692;2022-08-19T16:57:39;10.27;;;4.75;;
61483;SDS011;47349;55.640;37.692;2022-08-19T17:00:26;11.18;;;4.20;;
61483;SDS011;47349;55.640;37.692;2022-08-19T17:03:09;14.75;;;4.55;;
61483;SDS011;47349;55.640;37.692;2022-08-19T17:06:12;11.57;;;4.38;;
61483;SDS011;47349;55.640;37.692;2022-08-19T17:09:19;9.32;;;4.22;;
61483;SDS011;47349;55.640;37.692;2022-08-19T17:12:44;8.93;;;4.38;;
61483;SDS011;47349;55.640;37.692;2022-08-19T17:16:16;10.48;;;4.13;;
61483;SDS011;47349;55.640;37.692;2022-08-19T17:19:18;12.27;;;4.50;;
61483;SDS011;47349;55.640;37.692;2022-08-19T17:23:03;7.85;;;3.90;;
61483;SDS011;47349;55.640;37.692;2022-08-19T17:26:28;10.98;;;3.90;;
61483;SDS011;47349;55.640;37.692;2022-08-19T17:29:31;10.23;;;4.00;;
61483;SDS011;47349;55.640;37.692;2022-08-19T17:32:14;9.13;;;4.28;;
61483;SDS011;47349;55.640;37.692;2022-08-19T17:34:55;15.48;;;4.20;;
61483;SDS011;47349;55.640;37.692;2022-08-19T17:37:38;7.57;;;4.20;;
61483;SDS011;47349;55.640;37.692;2022-08-19T17:40:30;8.70;;;3.80;;
61483;SDS011;47349;55.640;37.692;2022-08-19T17:43:46;7.47;;;3.50;;
61483;SDS011;47349;55.640;37.692;2022-08-19T17:47:10;9.25;;;4.15;;
61483;SDS011;47349;55.640;37.692;2022-08-19T17:50:03;6.47;;;3.88;;
61483;SDS011;47349;55.640;37.692;2022-08-19T17:55:58;8.45;;;3.63;;
61483;SDS011;47349;55.640;37.692;2022-08-19T17:58:59;10.55;;;3.58;;
61483;SDS011;47349;55.640;37.692;2022-08-19T18:01:43;6.38;;;4.10;;
61483;SDS011;47349;55.640;37.692;2022-08-19T18:05:08;8.15;;;3.70;;
61483;SDS011;47349;55.640;37.692;2022-08-19T18:08:15;6.65;;;3.80;;
61483;SDS011;47349;55.640;37.692;2022-08-19T18:11:22;5.95;;;3.65;;
61483;SDS011;47349;55.640;37.692;2022-08-19T18:14:12;8.25;;;3.55;;
61483;SDS011;47349;55.640;37.692;2022-08-19T18:18:06;14.05;;;3.95;;
61483;SDS011;47349;55.640;37.692;2022-08-19T18:21:16;8.02;;;3.60;;
61483;SDS011;47349;55.640;37.692;2022-08-19T18:24:02;6.65;;;2.95;;
61483;SDS011;47349;55.640;37.692;2022-08-19T18:26:43;7.97;;;3.38;;
61483;SDS011;47349;55.640;37.692;2022-08-19T18:30:20;9.45;;;3.38;;
61483;SDS011;47349;55.640;37.692;2022-08-19T18:33:10;7.32;;;3.47;;
61483;SDS011;47349;55.640;37.692;2022-08-19T18:37:09;8.75;;;3.10;;
61483;SDS011;47349;55.640;37.692;2022-08-19T18:40:16;8.48;;;3.10;;
61483;SDS011;47349;55.640;37.692;2022-08-19T18:43:53;7.97;;;3.10;;
61483;SDS011;47349;55.640;37.692;2022-08-19T18:47:40;11.98;;;3.25;;
61483;SDS011;47349;55.640;37.692;2022-08-19T18:51:05;7.38;;;3.40;;
61483;SDS011;47349;55.640;37.692;2022-08-19T18:54:11;6.60;;;3.25;;
61483;SDS011;47349;55.640;37.692;2022-08-19T18:57:22;8.23;;;3.25;;
61483;SDS011;47349;55.640;37.692;2022-08-19T19:00:09;6.13;;;3.40;;
61483;SDS011;47349;55.640;37.692;2022-08-19T19:03:15;11.43;;;3.00;;
61483;SDS011;47349;55.640;37.692;2022-08-19T19:05:59;8.00;;;4.45;;
61483;SDS011;47349;55.640;37.692;2022-08-19T19:09:21;6.53;;;3.22;;
61483;SDS011;47349;55.640;37.692;2022-08-19T19:12:24;7.70;;;3.45;;
61483;SDS011;47349;55.640;37.692;2022-08-19T19:15:13;11.65;;;3.63;;
61483;SDS011;47349;55.640;37.692;2022-08-19T19:18:02;9.93;;;2.97;;
61483;SDS011;47349;55.640;37.692;2022-08-19T19:20:48;10.95;;;3.20;;
61483;SDS011;47349;55.640;37.692;2022-08-19T19:23:53;6.53;;;3.13;;
61483;SDS011;47349;55.640;37.692;2022-08-19T19:26:36;6.97;;;3.03;;
61483;SDS011;47349;55.640;37.692;2022-08-19T19:29:43;7.13;;;3.25;;
61483;SDS011;47349;55.640;37.692;2022-08-19T19:32:29;9.05;;;2.88;;
61483;SDS011;47349;55.640;37.692;2022-08-19T19:35:20;7.65;;;3.08;;
61483;SDS011;47349;55.640;37.692;2022-08-19T19:38:08;7.38;;;3.10;;
61483;SDS011;47349;55.640;37.692;2022-08-19T19:41:35;4.93;;;2.67;;
61483;SDS011;47349;55.640;37.692;2022-08-19T19:44:19;7.57;;;3.30;;
61483;SDS011;47349;55.640;37.692;2022-08-19T19:47:03;10.45;;;3.53;;
61483;SDS011;47349;55.640;37.692;2022-08-19T19:49:52;9.48;;;3.25;;
61483;SDS011;47349;55.640;37.692;2022-08-19T19:52:54;8.63;;;2.72;;
61483;SDS011;47349;55.640;37.692;2022-08-19T19:55:44;6.40;;;2.97;;
61483;SDS011;47349;55.640;37.692;2022-08-19T19:58:48;9.20;;;2.63;;
61483;SDS011;47349;55.640;37.692;2022-08-19T20:01:52;7.20;;;3.05;;
61483;SDS011;47349;55.640;37.692;2022-08-19T20:05:35;9.82;;;3.67;;
61483;SDS011;47349;55.640;37.692;2022-08-19T20:08:38;8.75;;;3.03;;
61483;SDS011;47349;55.640;37.692;2022-08-19T20:11:43;4.72;;;2.53;;
61483;SDS011;47349;55.640;37.692;2022-08-19T20:14:58;7.53;;;2.97;;
61483;SDS011;47349;55.640;37.692;2022-08-19T20:17:53;6.60;;;3.15;;
61483;SDS011;47349;55.640;37.692;2022-08-19T20:23:22;9.30;;;3.30;;
61483;SDS011;47349;55.640;37.692;2022-08-19T20:26:07;8.27;;;2.90;;
61483;SDS011;47349;55.640;37.692;2022-08-19T20:28:51;6.25;;;2.67;;
61483;SDS011;47349;55.640;37.692;2022-08-19T20:31:42;5.18;;;3.08;;
61483;SDS011;47349;55.640;37.692;2022-08-19T20:34:27;7.35;;;2.95;;
61483;SDS011;47349;55.640;37.692;2022-08-19T20:37:16;11.35;;;2.70;;
61483;SDS011;47349;55.640;37.692;2022-08-19T20:40:39;15.60;;;3.10;;
61483;SDS011;47349;55.640;37.692;2022-08-19T20:43:30;9.77;;;3.08;;
61483;SDS011;47349;55.640;37.692;2022-08-19T20:46:15;8.40;;;2.88;;
61483;SDS011;47349;55.640;37.692;2022-08-19T20:49:22;9.32;;;2.83;;
61483;SDS011;47349;55.640;37.692;2022-08-19T20:52:34;12.95;;;3.42;;
61483;SDS011;47349;55.640;37.692;2022-08-19T20:55:27;4.22;;;2.78;;
61483;SDS011;47349;55.640;37.692;2022-08-19T20:58:12;7.75;;;3.08;;
61483;SDS011;47349;55.640;37.692;2022-08-19T21:01:19;9.05;;;3.00;;
61483;SDS011;47349;55.640;37.692;2022-08-19T21:04:29;5.70;;;3.60;;
61483;SDS011;47349;55.640;37.692;2022-08-19T21:07:30;8.45;;;3.28;;
61483;SDS011;47349;55.640;37.692;2022-08-19T21:10:16;6.88;;;2.97;;
61483;SDS011;47349;55.640;37.692;2022-08-19T21:13:03;6.88;;;3.00;;
61483;SDS011;47349;55.640;37.692;2022-08-19T21:15:46;5.93;;;3.08;;
61483;SDS011;47349;55.640;37.692;2022-08-19T21:18:30;9.73;;;3.40;;
61483;SDS011;47349;55.640;37.692;2022-08-19T21:21:37;10.48;;;3.38;;
61483;SDS011;47349;55.640;37.692;2022-08-19T21:24:28;8.63;;;3.30;;
61483;SDS011;47349;55.640;37.692;2022-08-19T21:27:12;12.18;;;4.30;;
61483;SDS011;47349;55.640;37.692;2022-08-19T21:29:57;10.55;;;5.93;;
61483;SDS011;47349;55.640;37.692;2022-08-19T21:32:49;9.60;;;4.47;;
61483;SDS011;47349;55.640;37.692;2022-08-19T21:35:33;11.02;;;5.32;;
61483;SDS011;47349;55.640;37.692;2022-08-19T21:38:38;12.70;;;5.00;;
61483;SDS011;47349;55.640;37.692;2022-08-19T21:41:20;10.25;;;5.28;;
61483;SDS011;47349;55.640;37.692;2022-08-19T21:44:03;10.95;;;4.47;;
61483;SDS011;47349;55.640;37.692;2022-08-19T21:46:46;7.05;;;4.25;;
61483;SDS011;47349;55.640;37.692;2022-08-19T21:49:32;8.02;;;3.45;;
61483;SDS011;47349;55.640;37.692;2022-08-19T21:52:22;9.57;;;3.50;;
61483;SDS011;47349;55.640;37.692;2022-08-19T21:55:08;9.88;;;3.65;;
61483;SDS011;47349;55.640;37.692;2022-08-19T21:58:32;12.93;;;4.80;;
61483;SDS011;47349;55.640;37.692;2022-08-19T22:01:17;12.77;;;4.68;;
61483;SDS011;47349;55.640;37.692;2022-08-19T22:04:01;10.48;;;5.47;;
61483;SDS011;47349;55.640;37.692;2022-08-19T22:07:08;12.45;;;5.65;;
61483;SDS011;47349;55.640;37.692;2022-08-19T22:09:54;10.20;;;6.50;;
61483;SDS011;47349;55.640;37.692;2022-08-19T22:12:38;15.43;;;6.97;;
61483;SDS011;47349;55.640;37.692;2022-08-19T22:15:41;10.98;;;6.78;;
61483;SDS011;47349;55.640;37.692;2022-08-19T22:18:29;14.15;;;7.50;;
61483;SDS011;47349;55.640;37.692;2022-08-19T22:21:15;13.00;;;7.75;;
61483;SDS011;47349;55.640;37.692;2022-08-19T22:24:01;14.23;;;7.10;;
61483;SDS011;47349;55.640;37.692;2022-08-19T22:27:26;11.70;;;6.60;;
61483;SDS011;47349;55.640;37.692;2022-08-19T22:30:10;13.48;;;5.50;;
61483;SDS011;47349;55.640;37.692;2022-08-19T22:32:56;17.23;;;6.93;;
61483;SDS011;47349;55.640;37.692;2022-08-19T22:36:02;11.70;;;5.88;;
61483;SDS011;47349;55.640;37.692;2022-08-19T22:38:49;10.52;;;6.30;;
61483;SDS011;47349;55.640;37.692;2022-08-19T22:41:52;11.25;;;6.07;;
61483;SDS011;47349;55.640;37.692;2022-08-19T22:44:35;9.95;;;5.97;;
61483;SDS011;47349;55.640;37.692;2022-08-19T22:47:16;10.50;;;5.85;;
61483;SDS011;47349;55.640;37.692;2022-08-19T22:54:02;13.23;;;6.40;;
61483;SDS011;47349;55.640;37.692;2022-08-19T22:57:05;10.55;;;6.50;;
61483;SDS011;47349;55.640;37.692;2022-08-19T22:59:50;13.88;;;7.22;;
61483;SDS011;47349;55.640;37.692;2022-08-19T23:05:42;12.38;;;8.48;;
61483;SDS011;47349;55.640;37.692;2022-08-19T23:08:27;20.00;;;11.32;;
61483;SDS011;47349;55.640;37.692;2022-08-19T23:11:23;24.52;;;12.30;;
61483;SDS011;47349;55.640;37.692;2022-08-19T23:14:05;22.85;;;12.98;;
61483;SDS011;47349;55.640;37.692;2022-08-19T23:16:50;27.95;;;17.50;;
61483;SDS011;47349;55.640;37.692;2022-08-19T23:19:41;28.90;;;19.20;;
61483;SDS011;47349;55.640;37.692;2022-08-19T23:22:25;41.03;;;23.67;;
61483;SDS011;47349;55.640;37.692;2022-08-19T23:25:11;37.28;;;24.92;;
61483;SDS011;47349;55.640;37.692;2022-08-19T23:27:58;39.80;;;25.65;;
61483;SDS011;47349;55.640;37.692;2022-08-19T23:30:58;41.38;;;24.45;;